createdAt,value
2016-12-09T00:00:13.319Z,91.83
2016-12-09T00:00:35.036Z,92.03
2016-12-09T00:00:57.778Z,92.14
2016-12-09T00:01:28.046Z,91.92
2016-12-09T00:01:49.689Z,91.80
2016-12-09T00:02:16.166Z,91.72
2016-12-09T00:02:47.425Z,91.66
2016-12-09T00:03:09.146Z,91.53
2016-12-09T00:03:30.865Z,91.72
2016-12-09T00:04:36.453Z,91.71
2016-12-09T00:05:00.223Z,91.69
2016-12-09T00:05:28.705Z,92.15
2016-12-09T00:05:50.418Z,92.43
2016-12-09T00:06:12.147Z,92.74
2016-12-09T00:07:00.173Z,92.79
2016-12-09T00:08:08.747Z,92.37
2016-12-09T00:08:36.240Z,92.12
2016-12-09T00:09:01.928Z,91.97
2016-12-09T00:09:28.421Z,91.74
2016-12-09T00:09:59.683Z,91.69
2016-12-09T00:10:31.016Z,91.86
2016-12-09T00:11:07.048Z,91.83
2016-12-09T00:11:35.529Z,91.65
2016-12-09T00:12:02.029Z,91.61
2016-12-09T00:12:23.742Z,91.66
2016-12-09T00:12:52.233Z,91.56
2016-12-09T00:13:48.104Z,91.64
2016-12-09T00:14:14.601Z,91.59
2016-12-09T00:14:42.089Z,91.53
2016-12-09T00:15:09.194Z,91.87
2016-12-09T00:15:36.772Z,91.76
2016-12-09T00:15:58.497Z,91.60
2016-12-09T00:16:21.210Z,91.64
2016-12-09T00:16:42.924Z,91.66
2016-12-09T00:17:05.672Z,91.63
2016-12-09T00:17:36.757Z,91.72
2016-12-09T00:18:29.730Z,91.59
2016-12-09T00:18:51.493Z,91.61
2016-12-09T00:19:15.211Z,91.39
2016-12-09T00:19:41.695Z,91.26
2016-12-09T00:20:44.911Z,91.63
2016-12-09T00:21:18.182Z,91.71
2016-12-09T00:21:50.448Z,91.93
2016-12-09T00:22:53.425Z,91.91
2016-12-09T00:23:25.360Z,91.91
2016-12-09T00:23:47.104Z,92.06
2016-12-09T00:24:45.861Z,92.18
2016-12-09T00:25:15.634Z,92.13
2016-12-09T00:25:42.125Z,92.11
2016-12-09T00:26:38.094Z,92.33
2016-12-09T00:28:12.358Z,92.13
2016-12-09T00:28:38.809Z,92.04
2016-12-09T00:29:00.532Z,92.20
2016-12-09T00:29:22.241Z,92.00
2016-12-09T00:30:52.253Z,92.05
2016-12-09T00:31:44.902Z,92.05
2016-12-09T00:32:41.898Z,92.76
2016-12-09T00:33:13.170Z,92.45
2016-12-09T00:34:04.254Z,91.81
2016-12-09T00:34:28.523Z,91.86
2016-12-09T00:36:47.587Z,91.33
2016-12-09T00:37:18.846Z,91.59
2016-12-09T00:37:45.339Z,91.91
2016-12-09T00:39:31.317Z,91.99
2016-12-09T00:39:54.057Z,92.01
2016-12-09T00:40:20.558Z,91.98
2016-12-09T00:40:44.879Z,92.24
2016-12-09T00:41:15.237Z,92.18
2016-12-09T00:41:36.963Z,91.97
2016-12-09T00:42:02.400Z,92.00
2016-12-09T00:42:28.890Z,91.94
2016-12-09T00:43:27.461Z,92.56
2016-12-09T00:43:58.730Z,92.87
2016-12-09T00:44:27.834Z,93.33
2016-12-09T00:44:49.567Z,93.48
2016-12-09T00:45:16.061Z,93.55
2016-12-09T00:45:42.546Z,93.57
2016-12-09T00:46:05.289Z,93.39
2016-12-09T00:46:27.008Z,93.21
2016-12-09T00:46:53.510Z,92.94
2016-12-09T00:47:19.985Z,92.93
2016-12-09T00:47:49.096Z,93.21
2016-12-09T00:49:13.150Z,93.38
2016-12-09T00:49:39.639Z,93.36
2016-12-09T00:50:06.132Z,93.49
2016-12-09T00:50:28.844Z,93.54
2016-12-09T00:51:00.135Z,93.47
2016-12-09T00:51:54.125Z,93.32
2016-12-09T00:52:20.610Z,93.51
2016-12-09T00:52:48.094Z,93.51
2016-12-09T00:53:17.196Z,93.47
2016-12-09T00:54:11.642Z,93.39
2016-12-09T00:54:33.361Z,93.38
2016-12-09T00:54:55.072Z,93.38
2016-12-09T00:55:16.784Z,93.28
2016-12-09T00:55:39.513Z,93.19
2016-12-09T00:56:03.228Z,93.31
2016-12-09T00:56:27.950Z,93.28
2016-12-09T00:56:49.677Z,93.40
2016-12-09T00:57:37.947Z,93.60
2016-12-09T00:58:28.840Z,93.69
2016-12-09T00:58:55.323Z,93.67
2016-12-09T00:59:21.802Z,93.53
2016-12-09T00:59:48.322Z,93.37
2016-12-09T01:00:17.325Z,93.12
2016-12-09T01:00:44.146Z,93.33
2016-12-09T01:01:15.403Z,93.66
2016-12-09T01:02:13.428Z,93.24
2016-12-09T01:02:35.149Z,93.05
2016-12-09T01:03:01.451Z,93.19
2016-12-09T01:03:30.881Z,93.22
2016-12-09T01:03:53.612Z,93.34
2016-12-09T01:04:25.070Z,93.41
2016-12-09T01:04:51.905Z,93.44
2016-12-09T01:05:13.628Z,93.35
2016-12-09T01:05:38.005Z,93.21
2016-12-09T01:06:07.419Z,93.21
2016-12-09T01:06:30.161Z,93.19
2016-12-09T01:06:51.885Z,93.16
2016-12-09T01:07:14.619Z,93.17
2016-12-09T01:08:05.645Z,93.23
2016-12-09T01:08:36.714Z,93.65
2016-12-09T01:09:03.788Z,93.72
2016-12-09T01:09:34.134Z,93.77
2016-12-09T01:10:08.053Z,93.69
2016-12-09T01:10:30.766Z,93.52
2016-12-09T01:10:57.259Z,93.61
2016-12-09T01:11:18.980Z,93.55
2016-12-09T01:11:42.697Z,93.44
2016-12-09T01:12:04.522Z,93.48
2016-12-09T01:12:33.584Z,93.56
2016-12-09T01:13:01.084Z,93.46
2016-12-09T01:13:58.172Z,93.70
2016-12-09T01:14:22.505Z,93.73
2016-12-09T01:14:48.820Z,93.76
2016-12-09T01:15:10.564Z,93.69
2016-12-09T01:15:33.297Z,93.72
2016-12-09T01:15:57.796Z,93.72
2016-12-09T01:16:29.055Z,93.64
2016-12-09T01:16:55.355Z,93.57
2016-12-09T01:17:21.842Z,93.47
2016-12-09T01:17:43.567Z,93.29
2016-12-09T01:19:16.345Z,93.25
2016-12-09T01:20:06.577Z,93.31
2016-12-09T01:20:36.039Z,93.11
2016-12-09T01:21:00.333Z,93.17
2016-12-09T01:21:26.828Z,93.33
2016-12-09T01:21:48.598Z,93.18
2016-12-09T01:22:15.081Z,93.29
2016-12-09T01:23:18.433Z,93.30
2016-12-09T01:23:44.924Z,93.30
2016-12-09T01:24:11.409Z,93.21
2016-12-09T01:24:33.136Z,93.31
2016-12-09T01:25:03.616Z,93.29
2016-12-09T01:25:30.112Z,93.19
2016-12-09T01:26:02.365Z,93.36
2016-12-09T01:26:24.100Z,93.19
2016-12-09T01:26:48.539Z,92.90
2016-12-09T01:27:42.142Z,92.86
2016-12-09T01:28:09.081Z,92.99
2016-12-09T01:28:30.803Z,93.19
2016-12-09T01:28:52.526Z,93.06
2016-12-09T01:29:17.008Z,93.36
2016-12-09T01:29:40.713Z,93.16
2016-12-09T01:30:02.465Z,93.06
2016-12-09T01:30:34.574Z,93.23
2016-12-09T01:30:59.867Z,93.37
2016-12-09T01:31:26.358Z,93.00
2016-12-09T01:31:51.013Z,92.88
2016-12-09T01:32:12.735Z,93.23
2016-12-09T01:32:35.449Z,93.15
2016-12-09T01:33:06.721Z,93.22
2016-12-09T01:33:28.431Z,93.17
2016-12-09T01:34:04.272Z,93.07
2016-12-09T01:34:30.772Z,93.08
2016-12-09T01:34:57.258Z,92.98
2016-12-09T01:35:23.741Z,92.93
2016-12-09T01:35:50.227Z,93.10
2016-12-09T01:36:12.938Z,93.19
2016-12-09T01:36:39.420Z,93.09
2016-12-09T01:37:01.148Z,92.96
2016-12-09T01:37:49.390Z,93.30
2016-12-09T01:38:11.114Z,93.39
2016-12-09T01:38:37.655Z,93.10
2016-12-09T01:39:01.365Z,93.05
2016-12-09T01:39:27.862Z,93.13
2016-12-09T01:39:49.581Z,93.09
2016-12-09T01:40:12.314Z,93.10
2016-12-09T01:40:34.050Z,93.32
2016-12-09T01:40:56.768Z,93.38
2016-12-09T01:41:18.492Z,93.34
2016-12-09T01:41:40.231Z,93.39
2016-12-09T01:42:02.945Z,93.38
2016-12-09T01:43:17.659Z,93.02
2016-12-09T01:43:40.391Z,92.97
2016-12-09T01:44:02.133Z,93.21
2016-12-09T01:44:24.859Z,93.32
2016-12-09T01:44:47.585Z,93.33
2016-12-09T01:45:09.298Z,93.46
2016-12-09T01:45:32.056Z,93.47
2016-12-09T01:45:53.769Z,93.40
2016-12-09T01:46:15.483Z,93.28
2016-12-09T01:47:03.682Z,93.40
2016-12-09T01:47:27.916Z,93.45
2016-12-09T01:47:53.259Z,93.50
2016-12-09T01:48:19.752Z,93.43
2016-12-09T01:48:46.237Z,93.49
2016-12-09T01:49:10.762Z,93.38
2016-12-09T01:49:33.499Z,93.55
2016-12-09T01:49:56.206Z,93.62
2016-12-09T01:50:17.933Z,93.47
2016-12-09T01:50:39.660Z,93.39
2016-12-09T01:51:06.146Z,93.53
2016-12-09T01:51:32.635Z,93.54
2016-12-09T01:51:59.663Z,93.45
2016-12-09T01:52:21.377Z,93.40
2016-12-09T01:52:45.824Z,93.46
2016-12-09T01:53:07.561Z,93.64
2016-12-09T01:53:32.012Z,93.47
2016-12-09T01:53:53.728Z,93.40
2016-12-09T01:54:18.166Z,93.39
2016-12-09T01:54:44.654Z,93.56
2016-12-09T01:55:43.432Z,93.63
2016-12-09T01:56:34.479Z,93.87
2016-12-09T01:57:42.748Z,93.43
2016-12-09T01:58:04.472Z,93.26
2016-12-09T01:58:26.200Z,93.39
2016-12-09T01:59:19.173Z,93.40
2016-12-09T01:59:40.886Z,93.56
2016-12-09T02:00:09.980Z,93.72
2016-12-09T02:00:44.193Z,93.61
2016-12-09T02:01:37.177Z,93.54
2016-12-09T02:02:29.087Z,93.39
2016-12-09T02:03:18.291Z,93.52
2016-12-09T02:03:42.604Z,93.37
2016-12-09T02:04:04.317Z,93.46
2016-12-09T02:04:28.836Z,93.42
2016-12-09T02:04:50.585Z,93.29
2016-12-09T02:05:17.077Z,93.36
2016-12-09T02:05:41.819Z,93.43
2016-12-09T02:06:09.355Z,93.53
2016-12-09T02:06:38.744Z,93.38
2016-12-09T02:07:08.084Z,93.49
2016-12-09T02:07:37.308Z,93.49
2016-12-09T02:08:01.623Z,93.38
2016-12-09T02:08:23.335Z,93.34
2016-12-09T02:08:45.071Z,93.38
2016-12-09T02:09:11.557Z,93.27
2016-12-09T02:09:38.476Z,93.38
2016-12-09T02:10:34.292Z,93.39
2016-12-09T02:11:00.786Z,93.37
2016-12-09T02:11:30.893Z,93.39
2016-12-09T02:11:57.402Z,93.34
2016-12-09T02:12:58.102Z,93.31
2016-12-09T02:13:53.796Z,93.46
2016-12-09T02:14:18.038Z,93.55
2016-12-09T02:14:39.758Z,93.55
2016-12-09T02:15:04.272Z,93.49
2016-12-09T02:15:33.640Z,93.38
2016-12-09T02:16:26.761Z,93.46
2016-12-09T02:16:48.471Z,93.43
2016-12-09T02:17:10.184Z,93.36
2016-12-09T02:17:31.910Z,93.45
2016-12-09T02:17:56.708Z,93.34
2016-12-09T02:18:18.429Z,93.21
2016-12-09T02:18:40.151Z,93.32
2016-12-09T02:19:31.064Z,93.31
2016-12-09T02:19:55.318Z,93.33
2016-12-09T02:20:24.175Z,93.41
2016-12-09T02:20:50.671Z,93.18
2016-12-09T02:21:19.882Z,93.15
2016-12-09T02:21:46.372Z,93.10
2016-12-09T02:22:34.586Z,93.13
2016-12-09T02:22:57.297Z,92.94
2016-12-09T02:23:24.103Z,92.87
2016-12-09T02:23:45.833Z,93.05
2016-12-09T02:24:13.327Z,93.17
2016-12-09T02:24:40.620Z,93.42
2016-12-09T02:25:06.948Z,93.44
2016-12-09T02:25:39.210Z,93.25
2016-12-09T02:26:10.461Z,93.27
2016-12-09T02:27:15.607Z,93.28
2016-12-09T02:28:13.447Z,93.49
2016-12-09T02:28:45.709Z,93.44
2016-12-09T02:29:33.064Z,93.36
2016-12-09T02:29:55.800Z,93.33
2016-12-09T02:30:17.529Z,93.22
2016-12-09T02:30:46.584Z,93.47
2016-12-09T02:32:38.128Z,93.43
2016-12-09T02:33:04.619Z,93.52
2016-12-09T02:34:05.190Z,93.43
2016-12-09T02:35:56.674Z,93.16
2016-12-09T02:36:22.975Z,93.46
2016-12-09T02:36:48.365Z,93.35
2016-12-09T02:37:15.228Z,93.30
2016-12-09T02:37:39.558Z,93.49
2016-12-09T02:38:03.887Z,93.28
2016-12-09T02:38:26.607Z,93.29
2016-12-09T02:38:52.936Z,93.20
2016-12-09T02:39:15.656Z,93.23
2016-12-09T02:39:40.202Z,93.61
2016-12-09T02:40:01.916Z,93.40
2016-12-09T02:41:13.238Z,93.59
2016-12-09T02:41:39.735Z,93.82
2016-12-09T02:42:01.453Z,93.81
2016-12-09T02:43:20.936Z,93.82
2016-12-09T02:43:47.972Z,93.81
2016-12-09T02:44:21.862Z,93.93
2016-12-09T02:44:48.354Z,93.60
2016-12-09T02:45:10.077Z,93.71
2016-12-09T02:45:34.325Z,93.63
2016-12-09T02:45:56.041Z,93.54
2016-12-09T02:46:20.515Z,93.57
2016-12-09T02:46:42.235Z,93.77
2016-12-09T02:47:06.647Z,93.89
2016-12-09T02:47:54.841Z,94.01
2016-12-09T02:48:17.554Z,93.89
2016-12-09T02:48:39.267Z,93.91
2016-12-09T02:49:00.986Z,94.00
2016-12-09T02:49:22.689Z,94.21
2016-12-09T02:49:44.410Z,94.01
2016-12-09T02:50:10.712Z,93.98
2016-12-09T02:50:39.931Z,93.75
2016-12-09T02:51:09.083Z,93.63
2016-12-09T02:51:30.801Z,93.77
2016-12-09T02:51:52.514Z,93.74
2016-12-09T02:52:14.248Z,93.91
2016-12-09T02:52:48.204Z,93.91
2016-12-09T02:53:09.923Z,94.01
2016-12-09T02:53:41.181Z,93.90
2016-12-09T02:54:07.669Z,93.81
2016-12-09T02:54:29.396Z,93.76
2016-12-09T02:54:56.262Z,93.94
2016-12-09T02:55:22.748Z,93.88
2016-12-09T02:55:45.468Z,93.58
2016-12-09T02:56:33.667Z,93.62
2016-12-09T02:56:59.972Z,93.63
2016-12-09T02:57:52.955Z,93.50
2016-12-09T02:58:50.709Z,93.60
2016-12-09T02:59:19.816Z,93.45
2016-12-09T02:59:42.528Z,93.52
2016-12-09T03:00:09.008Z,93.62
2016-12-09T03:01:12.302Z,93.28
2016-12-09T03:01:43.570Z,93.41
2016-12-09T03:02:08.035Z,93.18
2016-12-09T03:03:48.086Z,93.11
2016-12-09T03:04:38.284Z,92.96
2016-12-09T03:05:07.327Z,93.04
2016-12-09T03:05:29.046Z,93.05
2016-12-09T03:05:55.361Z,93.00
2016-12-09T03:06:22.873Z,93.12
2016-12-09T03:07:21.266Z,92.92
2016-12-09T03:07:42.983Z,92.80
2016-12-09T03:08:14.272Z,92.69
2016-12-09T03:08:40.544Z,92.75
2016-12-09T03:09:02.265Z,92.62
2016-12-09T03:10:39.009Z,92.86
2016-12-09T03:11:08.125Z,92.78
2016-12-09T03:11:44.157Z,92.90
2016-12-09T03:12:32.372Z,92.55
2016-12-09T03:13:31.144Z,92.57
2016-12-09T03:13:52.866Z,92.41
2016-12-09T03:14:26.783Z,92.22
2016-12-09T03:14:59.041Z,92.55
2016-12-09T03:15:28.048Z,92.56
2016-12-09T03:15:54.542Z,92.36
2016-12-09T03:16:23.781Z,92.07
2016-12-09T03:18:41.548Z,92.06
2016-12-09T03:19:32.547Z,91.95
2016-12-09T03:19:59.041Z,91.75
2016-12-09T03:20:32.231Z,91.70
2016-12-09T03:21:37.678Z,91.41
2016-12-09T03:22:00.401Z,91.60
2016-12-09T03:22:36.436Z,91.65
2016-12-09T03:23:03.628Z,91.73
2016-12-09T03:23:57.604Z,91.53
2016-12-09T03:24:50.596Z,91.54
2016-12-09T03:25:54.844Z,91.56
2016-12-09T03:26:24.212Z,91.95
2016-12-09T03:26:50.714Z,92.00
2016-12-09T03:27:24.085Z,91.83
2016-12-09T03:27:57.841Z,92.01
2016-12-09T03:28:25.345Z,92.19
2016-12-09T03:29:29.380Z,92.10
2016-12-09T03:29:55.869Z,91.91
2016-12-09T03:30:27.135Z,92.10
2016-12-09T03:30:54.623Z,92.00
2016-12-09T03:31:23.103Z,91.97
2016-12-09T03:31:48.774Z,92.06
2016-12-09T03:32:13.137Z,91.67
2016-12-09T03:32:44.401Z,91.51
2016-12-09T03:33:06.119Z,91.57
2016-12-09T03:33:35.200Z,91.82
2016-12-09T03:33:57.924Z,91.63
2016-12-09T03:34:20.652Z,91.59
2016-12-09T03:34:42.375Z,91.56
2016-12-09T03:35:11.556Z,91.77
2016-12-09T03:35:41.947Z,91.66
2016-12-09T03:36:03.674Z,91.92
2016-12-09T03:36:32.161Z,91.69
2016-12-09T03:37:04.417Z,91.68
2016-12-09T03:37:52.626Z,91.78
2016-12-09T03:38:15.341Z,91.89
2016-12-09T03:38:46.593Z,91.86
2016-12-09T03:40:20.097Z,92.04
2016-12-09T03:41:17.843Z,92.25
2016-12-09T03:41:44.145Z,91.97
2016-12-09T03:42:05.860Z,92.28
2016-12-09T03:42:27.577Z,91.89
2016-12-09T03:43:30.911Z,92.07
2016-12-09T03:43:52.622Z,92.09
2016-12-09T03:44:20.118Z,92.12
2016-12-09T03:44:46.428Z,92.13
2016-12-09T03:45:09.188Z,92.16
2016-12-09T03:45:35.643Z,91.97
2016-12-09T03:46:01.189Z,92.23
2016-12-09T03:46:37.636Z,92.22
2016-12-09T03:46:59.361Z,91.88
2016-12-09T03:47:22.159Z,91.81
2016-12-09T03:47:43.881Z,91.99
2016-12-09T03:48:05.622Z,91.98
2016-12-09T03:49:04.378Z,91.82
2016-12-09T03:49:30.856Z,92.00
2016-12-09T03:49:54.576Z,91.75
2016-12-09T03:50:21.072Z,91.79
2016-12-09T03:50:42.816Z,91.77
2016-12-09T03:51:04.517Z,91.92
2016-12-09T03:51:26.249Z,91.91
2016-12-09T03:51:57.513Z,91.82
2016-12-09T03:52:24.000Z,91.75
2016-12-09T03:52:48.317Z,91.22
2016-12-09T03:53:14.801Z,91.21
2016-12-09T03:53:41.285Z,91.46
2016-12-09T03:54:33.296Z,91.37
2016-12-09T03:54:55.021Z,91.33
2016-12-09T03:55:24.424Z,90.85
2016-12-09T03:56:52.275Z,90.83
2016-12-09T03:57:18.764Z,90.75
2016-12-09T03:57:40.490Z,91.06
2016-12-09T03:58:03.201Z,91.18
2016-12-09T03:58:24.932Z,91.37
2016-12-09T03:58:47.646Z,91.32
2016-12-09T03:59:09.370Z,91.17
2016-12-09T03:59:35.862Z,91.18
2016-12-09T04:00:02.359Z,91.18
2016-12-09T04:00:28.848Z,91.56
2016-12-09T04:00:55.351Z,91.27
2016-12-09T04:01:20.849Z,91.22
2016-12-09T04:01:42.565Z,91.28
2016-12-09T04:02:09.067Z,91.43
2016-12-09T04:02:30.777Z,91.61
2016-12-09T04:02:52.521Z,91.64
2016-12-09T04:03:14.225Z,91.37
2016-12-09T04:03:40.716Z,91.23
2016-12-09T04:04:02.439Z,91.19
2016-12-09T04:04:24.165Z,91.39
2016-12-09T04:04:48.398Z,91.38
2016-12-09T04:05:12.680Z,91.07
2016-12-09T04:05:40.556Z,90.86
2016-12-09T04:06:03.275Z,90.77
2016-12-09T04:06:24.991Z,90.75
2016-12-09T04:06:47.707Z,90.58
2016-12-09T04:07:09.421Z,90.51
2016-12-09T04:07:31.142Z,90.31
2016-12-09T04:07:52.857Z,90.43
2016-12-09T04:08:14.566Z,90.48
2016-12-09T04:08:42.061Z,90.51
2016-12-09T04:09:05.767Z,90.69
2016-12-09T04:09:37.035Z,90.54
2016-12-09T04:10:03.522Z,90.70
2016-12-09T04:10:34.791Z,90.60
2016-12-09T04:10:59.470Z,90.17
2016-12-09T04:11:51.646Z,89.79
2016-12-09T04:12:14.365Z,90.08
2016-12-09T04:12:36.080Z,90.33
2016-12-09T04:12:57.798Z,90.33
2016-12-09T04:13:20.513Z,90.29
2016-12-09T04:13:42.236Z,89.90
2016-12-09T04:14:07.631Z,89.99
2016-12-09T04:14:34.120Z,90.15
2016-12-09T04:15:00.608Z,90.01
2016-12-09T04:15:23.324Z,89.76
2016-12-09T04:15:54.586Z,89.49
2016-12-09T04:16:21.073Z,89.55
2016-12-09T04:16:47.571Z,89.44
2016-12-09T04:17:18.828Z,89.42
2016-12-09T04:18:14.312Z,89.49
2016-12-09T04:19:02.539Z,89.47
2016-12-09T04:19:29.024Z,89.48
2016-12-09T04:19:50.749Z,89.65
2016-12-09T04:20:17.292Z,89.48
2016-12-09T04:20:39.001Z,89.49
2016-12-09T04:21:05.500Z,89.18
2016-12-09T04:21:32.047Z,89.32
2016-12-09T04:21:53.769Z,89.28
2016-12-09T04:22:16.473Z,89.53
2016-12-09T04:22:38.220Z,88.93
2016-12-09T04:23:08.582Z,89.05
2016-12-09T04:24:01.575Z,88.48
2016-12-09T04:24:28.061Z,88.52
2016-12-09T04:24:49.779Z,88.58
2016-12-09T04:25:11.493Z,88.72
2016-12-09T04:25:33.208Z,88.67
2016-12-09T04:25:54.919Z,88.73
2016-12-09T04:26:17.636Z,88.79
2016-12-09T04:26:39.371Z,88.39
2016-12-09T04:27:05.898Z,88.32
2016-12-09T04:27:32.389Z,88.17
2016-12-09T04:27:54.105Z,88.20
2016-12-09T04:28:15.821Z,88.25
2016-12-09T04:28:48.089Z,88.57
2016-12-09T04:29:22.884Z,88.63
2016-12-09T04:29:44.601Z,88.51
2016-12-09T04:30:06.323Z,88.42
2016-12-09T04:30:38.580Z,87.99
2016-12-09T04:31:01.327Z,87.59
2016-12-09T04:31:23.019Z,87.87
2016-12-09T04:31:47.365Z,87.81
2016-12-09T04:32:09.080Z,87.77
2016-12-09T04:32:31.794Z,87.91
2016-12-09T04:32:53.514Z,87.87
2016-12-09T04:33:22.775Z,87.99
2016-12-09T04:33:50.274Z,88.10
2016-12-09T04:34:11.975Z,88.31
2016-12-09T04:34:34.696Z,88.40
2016-12-09T04:34:56.401Z,88.54
2016-12-09T04:35:18.121Z,88.44
2016-12-09T04:35:39.831Z,88.43
2016-12-09T04:36:01.552Z,88.09
2016-12-09T04:36:24.288Z,87.75
2016-12-09T04:36:58.339Z,87.69
2016-12-09T04:37:22.635Z,87.56
2016-12-09T04:37:54.958Z,87.25
2016-12-09T04:38:22.446Z,86.99
2016-12-09T04:38:44.168Z,87.05
2016-12-09T04:39:06.029Z,87.01
2016-12-09T04:39:59.024Z,86.78
2016-12-09T04:40:21.733Z,86.57
2016-12-09T04:40:48.223Z,86.50
2016-12-09T04:41:19.486Z,86.46
2016-12-09T04:41:41.287Z,86.83
2016-12-09T04:42:03.214Z,87.30
2016-12-09T04:42:24.952Z,87.18
2016-12-09T04:42:46.742Z,87.36
2016-12-09T04:43:11.016Z,87.32
2016-12-09T04:43:32.734Z,87.57
2016-12-09T04:44:09.579Z,87.60
2016-12-09T04:44:36.899Z,87.47
2016-12-09T04:45:03.466Z,87.49
2016-12-09T04:45:29.987Z,87.45
2016-12-09T04:45:52.731Z,87.54
2016-12-09T04:46:19.225Z,87.29
2016-12-09T04:46:40.960Z,87.27
2016-12-09T04:47:07.455Z,87.01
2016-12-09T04:47:32.047Z,86.93
2016-12-09T04:47:58.559Z,86.28
2016-12-09T04:48:20.280Z,86.21
2016-12-09T04:48:43.012Z,86.07
2016-12-09T04:49:04.735Z,86.23
2016-12-09T04:49:32.226Z,85.92
2016-12-09T04:50:25.220Z,86.24
2016-12-09T04:50:49.829Z,86.40
2016-12-09T04:51:42.817Z,85.36
2016-12-09T04:52:07.390Z,85.46
2016-12-09T04:52:56.599Z,85.52
2016-12-09T04:53:22.920Z,85.91
2016-12-09T04:53:46.737Z,85.50
2016-12-09T04:55:18.346Z,85.88
2016-12-09T04:55:40.076Z,85.41
2016-12-09T04:56:36.340Z,84.68
2016-12-09T04:57:02.663Z,85.07
2016-12-09T04:57:31.784Z,84.89
2016-12-09T04:57:53.515Z,84.99
2016-12-09T04:58:20.004Z,85.26
2016-12-09T04:58:41.728Z,84.90
2016-12-09T04:59:03.457Z,85.01
2016-12-09T04:59:28.889Z,84.53
2016-12-09T05:00:02.578Z,84.78
2016-12-09T05:00:58.235Z,84.94
2016-12-09T05:02:01.429Z,85.36
2016-12-09T05:02:27.727Z,85.43
2016-12-09T05:02:49.443Z,85.30
2016-12-09T05:03:13.799Z,85.40
2016-12-09T05:03:40.290Z,84.88
2016-12-09T05:04:08.514Z,85.25
2016-12-09T05:04:37.871Z,85.55
2016-12-09T05:04:59.610Z,85.85
2016-12-09T05:05:35.441Z,85.30
2016-12-09T05:06:26.428Z,84.97
2016-12-09T05:06:48.133Z,85.07
2016-12-09T05:07:09.848Z,85.03
2016-12-09T05:07:31.555Z,84.96
2016-12-09T05:07:53.267Z,84.85
2016-12-09T05:08:17.943Z,84.38
2016-12-09T05:08:39.660Z,84.80
2016-12-09T05:09:35.364Z,85.11
2016-12-09T05:09:57.078Z,85.37
2016-12-09T05:10:29.339Z,85.39
2016-12-09T05:11:27.394Z,85.16
2016-12-09T05:12:27.612Z,83.82
2016-12-09T05:13:00.589Z,84.88
2016-12-09T05:13:22.338Z,85.23
2016-12-09T05:13:44.059Z,85.17
2016-12-09T05:14:13.432Z,84.57
2016-12-09T05:14:36.146Z,84.46
2016-12-09T05:14:58.910Z,84.79
2016-12-09T05:15:25.407Z,84.74
2016-12-09T05:15:51.905Z,84.96
2016-12-09T05:16:13.623Z,85.08
2016-12-09T05:17:09.978Z,84.62
2016-12-09T05:17:31.703Z,84.29
2016-12-09T05:18:01.063Z,84.16
2016-12-09T05:18:27.555Z,84.45
2016-12-09T05:18:49.279Z,84.32
2016-12-09T05:19:11.006Z,84.23
2016-12-09T05:19:32.739Z,83.98
2016-12-09T05:19:59.234Z,83.98
2016-12-09T05:20:21.972Z,84.05
2016-12-09T05:20:51.993Z,83.82
2016-12-09T05:21:18.487Z,83.80
2016-12-09T05:21:43.123Z,84.06
2016-12-09T05:22:15.378Z,84.34
2016-12-09T05:22:37.103Z,84.45
2016-12-09T05:23:28.054Z,84.07
2016-12-09T05:23:54.543Z,84.01
2016-12-09T05:24:19.277Z,84.20
2016-12-09T05:24:45.747Z,84.28
2016-12-09T05:25:08.488Z,84.65
2016-12-09T05:26:02.558Z,84.69
2016-12-09T05:26:24.274Z,84.89
2016-12-09T05:26:50.780Z,84.89
2016-12-09T05:27:15.188Z,84.25
2016-12-09T05:27:36.917Z,84.26
2016-12-09T05:27:58.641Z,84.13
2016-12-09T05:28:25.128Z,84.40
2016-12-09T05:28:46.843Z,84.55
2016-12-09T05:29:08.563Z,84.90
2016-12-09T05:29:30.284Z,84.91
2016-12-09T05:29:53.012Z,84.15
2016-12-09T05:30:14.773Z,83.96
2016-12-09T05:30:36.488Z,84.26
2016-12-09T05:30:58.221Z,84.40
2016-12-09T05:31:19.953Z,84.72
2016-12-09T05:31:41.674Z,84.55
2016-12-09T05:32:03.412Z,84.71
2016-12-09T05:32:29.905Z,84.74
2016-12-09T05:32:56.742Z,84.43
2016-12-09T05:33:18.460Z,84.50
2016-12-09T05:33:40.165Z,84.47
2016-12-09T05:34:01.895Z,83.94
2016-12-09T05:34:28.385Z,83.60
2016-12-09T05:34:51.137Z,83.41
2016-12-09T05:35:12.859Z,83.98
2016-12-09T05:35:35.586Z,84.01
2016-12-09T05:35:57.303Z,84.39
2016-12-09T05:36:23.789Z,84.49
2016-12-09T05:36:45.513Z,84.57
2016-12-09T05:37:07.242Z,84.38
2016-12-09T05:37:55.279Z,84.02
2016-12-09T05:38:52.136Z,84.80
2016-12-09T05:39:13.857Z,85.04
2016-12-09T05:39:35.586Z,84.81
2016-12-09T05:40:06.853Z,84.46
2016-12-09T05:40:33.840Z,83.99
2016-12-09T05:40:55.576Z,84.03
2016-12-09T05:41:17.295Z,83.56
2016-12-09T05:41:39.030Z,83.13
2016-12-09T05:42:00.750Z,83.41
2016-12-09T05:42:22.462Z,83.31
2016-12-09T05:42:48.952Z,83.28
2016-12-09T05:43:11.675Z,83.25
2016-12-09T05:43:33.407Z,83.12
2016-12-09T05:43:59.912Z,83.49
2016-12-09T05:44:52.017Z,83.26
2016-12-09T05:45:13.750Z,83.77
2016-12-09T05:46:08.734Z,84.18
2016-12-09T05:46:31.527Z,83.99
2016-12-09T05:46:58.032Z,83.63
2016-12-09T05:47:19.783Z,83.23
2016-12-09T05:47:41.510Z,83.28
2016-12-09T05:48:08.001Z,83.43
2016-12-09T05:48:35.036Z,83.55
2016-12-09T05:48:56.745Z,83.17
2016-12-09T05:49:18.492Z,82.96
2016-12-09T05:49:44.991Z,82.57
2016-12-09T05:50:06.717Z,82.85
2016-12-09T05:50:28.453Z,82.83
2016-12-09T05:50:50.173Z,82.81
2016-12-09T05:51:14.867Z,83.04
2016-12-09T05:51:41.363Z,83.10
2016-12-09T05:52:07.861Z,83.12
2016-12-09T05:52:29.575Z,83.23
2016-12-09T05:52:54.254Z,83.47
2016-12-09T05:53:21.738Z,83.48
2016-12-09T05:54:16.789Z,83.17
2016-12-09T05:54:39.505Z,83.37
2016-12-09T05:55:01.243Z,83.63
2016-12-09T05:55:27.717Z,83.68
2016-12-09T05:56:56.740Z,83.75
2016-12-09T05:57:24.239Z,84.22
2016-12-09T05:57:53.725Z,84.24
2016-12-09T05:58:27.617Z,84.04
2016-12-09T05:58:50.338Z,83.47
2016-12-09T05:59:16.675Z,83.11
2016-12-09T05:59:38.401Z,83.17
2016-12-09T06:01:19.174Z,82.95
2016-12-09T06:01:51.338Z,82.81
2016-12-09T06:02:17.831Z,82.95
2016-12-09T06:02:44.326Z,82.73
2016-12-09T06:03:06.053Z,82.97
2016-12-09T06:03:27.781Z,83.48
2016-12-09T06:03:49.524Z,83.58
2016-12-09T06:04:11.254Z,83.72
2016-12-09T06:04:32.971Z,83.18
2016-12-09T06:04:59.486Z,83.25
2016-12-09T06:05:23.191Z,83.53
2016-12-09T06:05:44.921Z,83.62
2016-12-09T06:06:06.661Z,83.40
2016-12-09T06:06:28.389Z,83.31
2016-12-09T06:06:50.115Z,82.90
2016-12-09T06:07:11.835Z,83.09
2016-12-09T06:07:33.563Z,83.30
2016-12-09T06:07:55.287Z,83.48
2016-12-09T06:08:17.012Z,83.74
2016-12-09T06:08:38.755Z,83.66
2016-12-09T06:09:00.496Z,84.11
2016-12-09T06:09:22.215Z,84.17
2016-12-09T06:09:43.941Z,84.07
2016-12-09T06:10:32.161Z,83.38
2016-12-09T06:10:53.871Z,82.77
2016-12-09T06:11:16.598Z,82.96
2016-12-09T06:11:38.374Z,83.15
2016-12-09T06:12:00.103Z,83.50
2016-12-09T06:12:22.954Z,83.41
2016-12-09T06:12:44.608Z,83.41
2016-12-09T06:13:06.319Z,83.40
2016-12-09T06:13:28.047Z,82.80
2016-12-09T06:13:54.536Z,82.34
2016-12-09T06:14:16.266Z,82.25
2016-12-09T06:14:40.914Z,82.52
2016-12-09T06:15:02.656Z,82.64
2016-12-09T06:15:24.372Z,83.00
2016-12-09T06:15:46.098Z,83.37
2016-12-09T06:16:07.823Z,83.40
2016-12-09T06:16:30.554Z,83.37
2016-12-09T06:16:52.292Z,83.50
2016-12-09T06:17:14.012Z,83.68
2016-12-09T06:17:35.738Z,83.78
2016-12-09T06:18:02.222Z,84.00
2016-12-09T06:18:23.953Z,83.81
2016-12-09T06:18:45.684Z,83.91
2016-12-09T06:19:07.413Z,83.82
2016-12-09T06:19:29.144Z,83.84
2016-12-09T06:19:50.852Z,83.56
2016-12-09T06:20:17.365Z,83.52
2016-12-09T06:20:39.092Z,83.66
2016-12-09T06:21:00.817Z,83.70
2016-12-09T06:21:22.528Z,83.96
2016-12-09T06:21:45.264Z,83.98
2016-12-09T06:22:06.983Z,84.12
2016-12-09T06:22:28.702Z,84.21
2016-12-09T06:22:50.426Z,84.18
2016-12-09T06:23:12.148Z,83.77
2016-12-09T06:23:33.873Z,83.34
2016-12-09T06:23:55.609Z,83.00
2016-12-09T06:24:22.103Z,83.35
2016-12-09T06:24:43.822Z,83.53
2016-12-09T06:25:05.562Z,83.93
2016-12-09T06:25:53.767Z,83.99
2016-12-09T06:26:15.504Z,83.72
2016-12-09T06:26:37.212Z,83.32
2016-12-09T06:26:58.964Z,83.15
2016-12-09T06:27:20.704Z,83.42